Time;durP1;ratioP1;P1;durP2;ratioP2;P2;SDS_P1;SDS_P2;PMS_P1;PMS_P2;Temp;Humidity;BMP_temperature;BMP_pressure;BME280_temperature;BME280_humidity;BME280_pressure;Samples;Min_cycle;Max_cycle;Signal;HPM_P1;HPM_P2
2022/04/19 00:00:42;;;;;;;6.30;4.07;;;7.90;99.90;;;;;;5109517;28;20051;-77
2022/04/19 00:03:08;;;;;;;6.10;3.80;;;7.90;99.90;;;;;;5108901;28;20112;-76
2022/04/19 00:05:36;;;;;;;6.65;4.75;;;7.80;99.90;;;;;;5091285;28;20039;-76
2022/04/19 00:08:02;;;;;;;8.70;4.45;;;7.80;99.90;;;;;;5056498;28;20044;-76
2022/04/19 00:10:28;;;;;;;8.77;3.92;;;7.70;99.90;;;;;;5110237;28;20339;-78
2022/04/19 00:13:01;;;;;;;7.72;4.22;;;7.70;99.90;;;;;;5090362;28;20443;-76
2022/04/19 00:15:28;;;;;;;7.55;4.43;;;7.70;99.90;;;;;;5091100;28;20050;-76
2022/04/19 00:18:02;;;;;;;9.80;4.20;;;7.60;99.90;;;;;;5090550;28;20054;-76
2022/04/19 00:20:29;;;;;;;8.32;4.55;;;7.60;99.90;;;;;;5089750;28;20193;-76
2022/04/19 00:22:57;;;;;;;7.55;4.13;;;7.60;99.90;;;;;;5109688;28;20051;-76
2022/04/19 00:25:23;;;;;;;8.82;4.55;;;7.50;99.90;;;;;;5108181;28;20044;-77
2022/04/19 00:27:49;;;;;;;6.93;4.53;;;7.50;99.90;;;;;;5109573;28;20043;-77
2022/04/19 00:30:15;;;;;;;7.63;4.57;;;7.50;99.90;;;;;;5107579;28;20044;-75
2022/04/19 00:32:41;;;;;;;9.48;5.18;;;7.40;99.90;;;;;;5108442;28;20051;-77
2022/04/19 00:35:10;;;;;;;7.55;4.70;;;7.40;99.90;;;;;;5090692;28;20089;-77
2022/04/19 00:37:39;;;;;;;8.80;5.00;;;7.30;99.90;;;;;;5072595;28;20087;-77
2022/04/19 00:40:08;;;;;;;12.45;4.47;;;7.30;99.90;;;;;;5109633;28;20087;-76
2022/04/19 00:42:34;;;;;;;7.50;4.18;;;7.30;99.90;;;;;;5108090;28;20090;-76
2022/04/19 00:45:03;;;;;;;8.20;4.90;;;7.30;99.90;;;;;;5091264;28;20532;-76
2022/04/19 00:47:32;;;;;;;8.68;3.85;;;7.20;99.90;;;;;;5110011;28;20497;-76
2022/04/19 00:50:03;;;;;;;8.77;4.78;;;7.20;99.90;;;;;;5108316;28;20047;-76
2022/04/19 00:52:34;;;;;;;9.65;4.53;;;7.30;99.90;;;;;;5073888;28;20048;-76
2022/04/19 00:55:01;;;;;;;6.30;4.20;;;7.10;99.90;;;;;;5107459;28;20032;-77
2022/04/19 00:57:28;;;;;;;7.10;4.18;;;7.10;99.90;;;;;;5090765;28;20050;-76
2022/04/19 00:59:57;;;;;;;7.65;4.88;;;7.10;99.90;;;;;;5107422;28;20494;-77
2022/04/19 01:02:24;;;;;;;6.75;4.13;;;7.00;99.90;;;;;;5108503;28;20047;-77
2022/04/19 01:04:51;;;;;;;12.82;5.15;;;7.00;99.90;;;;;;5108370;28;20031;-77
2022/04/19 01:07:18;;;;;;;12.70;4.45;;;6.90;99.90;;;;;;5089429;28;20044;-76
2022/04/19 01:09:45;;;;;;;7.63;4.75;;;6.90;99.90;;;;;;5108953;28;20043;-77
2022/04/19 01:14:57;;;;;;;8.73;5.20;;;6.90;99.90;;;;;;5108779;28;20075;-77
2022/04/19 01:17:23;;;;;;;10.43;4.95;;;6.90;99.90;;;;;;5072318;28;20517;-77
2022/04/19 01:19:50;;;;;;;7.18;4.47;;;6.90;99.90;;;;;;5089023;28;20482;-77
2022/04/19 01:22:15;;;;;;;7.93;4.63;;;6.80;99.90;;;;;;5089537;28;20088;-76
2022/04/19 01:24:43;;;;;;;8.35;5.15;;;6.80;99.90;;;;;;5071486;28;20135;-76
2022/04/19 01:27:09;;;;;;;9.15;4.82;;;6.70;99.90;;;;;;5090736;28;20399;-76
2022/04/19 01:29:36;;;;;;;12.35;5.35;;;6.70;99.90;;;;;;5071200;28;20054;-76
2022/04/19 01:32:03;;;;;;;8.98;4.75;;;6.70;99.90;;;;;;5073003;28;20039;-76
2022/04/19 01:34:29;;;;;;;9.05;5.10;;;6.70;99.90;;;;;;5089494;28;20094;-76
2022/04/19 01:36:54;;;;;;;10.23;5.22;;;6.70;99.90;;;;;;5072203;28;20043;-76
2022/04/19 01:42:06;;;;;;;14.15;4.55;;;6.70;99.90;;;;;;5087776;28;20051;-76
2022/04/19 01:44:36;;;;;;;7.68;5.00;;;6.60;99.90;;;;;;5056849;28;20052;-76
2022/04/19 01:47:04;;;;;;;9.10;5.22;;;6.60;99.90;;;;;;5088654;28;20131;-76
2022/04/19 01:49:30;;;;;;;9.48;4.97;;;6.60;99.90;;;;;;5089612;28;20043;-77
2022/04/19 01:51:56;;;;;;;11.15;4.97;;;6.60;99.90;;;;;;5072808;28;20043;-77
2022/04/19 01:54:24;;;;;;;9.23;5.38;;;6.50;99.90;;;;;;5088555;28;20047;-77
2022/04/19 01:56:50;;;;;;;8.63;4.78;;;6.50;99.90;;;;;;5056724;28;20051;-76
2022/04/19 01:59:15;;;;;;;9.02;4.97;;;7.80;99.90;;;;;;5106943;28;20035;-77
2022/04/19 02:01:41;;;;;;;9.98;5.35;;;6.50;99.90;;;;;;5092436;28;20402;-77
2022/04/19 02:04:08;;;;;;;11.45;6.00;;;6.40;99.90;;;;;;5056109;28;20076;-77
2022/04/19 02:06:34;;;;;;;10.32;5.07;;;6.70;99.90;;;;;;5089721;28;20515;-78
2022/04/19 02:09:02;;;;;;;9.40;5.72;;;7.00;99.90;;;;;;5072616;28;20043;-77
2022/04/19 02:11:27;;;;;;;9.15;5.35;;;6.30;99.90;;;;;;5039521;28;20086;-77
2022/04/19 02:13:53;;;;;;;9.68;4.88;;;6.30;99.90;;;;;;5089681;28;20478;-77
2022/04/19 02:16:21;;;;;;;9.40;5.25;;;6.30;99.90;;;;;;5106151;28;20055;-77
2022/04/19 02:18:48;;;;;;;9.00;5.25;;;6.20;99.90;;;;;;5073657;28;20043;-77
2022/04/19 02:21:14;;;;;;;12.13;5.57;;;6.20;99.90;;;;;;5107088;28;20108;-76
2022/04/19 02:23:39;;;;;;;9.50;5.15;;;6.20;99.90;;;;;;5108301;28;20047;-77
2022/04/19 02:26:05;;;;;;;9.00;4.78;;;6.40;99.90;;;;;;5108391;28;20521;-77
2022/04/19 02:28:31;;;;;;;11.82;5.40;;;6.10;99.90;;;;;;5089316;28;20040;-77
2022/04/19 02:30:57;;;;;;;8.77;5.18;;;6.10;99.90;;;;;;5108261;28;20403;-76
2022/04/19 02:33:23;;;;;;;9.95;5.72;;;6.00;99.90;;;;;;5070600;28;20075;-76
2022/04/19 02:35:49;;;;;;;10.30;5.30;;;6.00;99.90;;;;;;5072657;28;20051;-76
2022/04/19 02:38:15;;;;;;;10.65;5.63;;;6.10;99.90;;;;;;5070887;28;20043;-77
2022/04/19 02:40:41;;;;;;;11.38;5.15;;;6.10;99.90;;;;;;5088629;28;20100;-77
2022/04/19 02:43:07;;;;;;;10.48;4.78;;;6.10;99.90;;;;;;5088982;28;20051;-77
2022/04/19 02:45:33;;;;;;;8.52;5.30;;;6.10;99.90;;;;;;5106291;28;20043;-77
2022/04/19 02:48:03;;;;;;;8.27;5.25;;;6.10;99.90;;;;;;5089715;28;20047;-77
2022/04/19 02:50:29;;;;;;;8.32;4.80;;;6.10;99.90;;;;;;5105838;28;20060;-77
2022/04/19 02:52:54;;;;;;;9.02;4.63;;;6.10;99.90;;;;;;5089201;28;20043;-77
2022/04/19 02:55:20;;;;;;;10.77;4.93;;;6.10;99.90;;;;;;5109539;28;20347;-77
2022/04/19 02:57:46;;;;;;;9.02;5.10;;;6.10;99.90;;;;;;5110945;28;20023;-77
2022/04/19 03:00:12;;;;;;;7.78;5.00;;;6.20;99.90;;;;;;5110786;28;20391;-76
2022/04/19 03:02:39;;;;;;;6.88;4.55;;;6.20;99.90;;;;;;5109699;28;20053;-76
2022/04/19 03:05:05;;;;;;;8.73;5.32;;;6.20;99.90;;;;;;5092545;28;20036;-77
2022/04/19 03:07:30;;;;;;;9.63;5.35;;;6.20;99.90;;;;;;5090796;28;20044;-77
2022/04/19 03:09:56;;;;;;;9.38;5.70;;;6.20;99.90;;;;;;5092715;28;20089;-76
2022/04/19 03:12:22;;;;;;;8.68;5.38;;;6.20;99.90;;;;;;5074680;28;20043;-76
2022/04/19 03:14:47;;;;;;;8.13;4.85;;;6.20;99.90;;;;;;5110495;28;20398;-77
2022/04/19 03:17:13;;;;;;;14.55;5.25;;;6.20;99.90;;;;;;5109867;28;20097;-76
2022/04/19 03:19:39;;;;;;;6.00;4.53;;;6.30;99.90;;;;;;5074598;28;20044;-76
2022/04/19 03:22:04;;;;;;;9.70;4.88;;;6.30;99.90;;;;;;5092324;28;20036;-76
2022/04/19 03:29:52;;;;;;;8.65;5.00;;;6.20;99.90;;;;;;5091652;28;20055;-75
2022/04/19 03:32:19;;;;;;;9.90;5.32;;;6.20;99.90;;;;;;5057976;28;20092;-76
2022/04/19 03:34:49;;;;;;;9.02;5.22;;;6.20;99.90;;;;;;5110940;28;20086;-76
2022/04/19 03:37:15;;;;;;;10.00;4.85;;;6.20;99.90;;;;;;5074202;28;20122;-76
2022/04/19 03:39:41;;;;;;;8.63;4.90;;;6.30;99.90;;;;;;5091850;28;20455;-76
2022/04/19 03:42:07;;;;;;;8.65;5.35;;;6.30;99.90;;;;;;5056638;28;20428;-76
2022/04/19 03:44:33;;;;;;;11.07;4.82;;;6.30;99.90;;;;;;5091852;28;20131;-77
2022/04/19 03:47:07;;;;;;;10.23;4.82;;;6.30;99.90;;;;;;5091233;28;20126;-77
2022/04/19 03:49:34;;;;;;;8.23;4.70;;;6.30;99.90;;;;;;5109470;28;20039;-76
2022/04/19 03:52:01;;;;;;;7.95;4.68;;;6.80;99.90;;;;;;5092349;28;20104;-76
2022/04/19 03:54:27;;;;;;;11.32;5.93;;;6.30;99.90;;;;;;5108405;28;20054;-76
2022/04/19 03:56:53;;;;;;;9.65;4.97;;;7.30;99.90;;;;;;5091845;28;20044;-77
2022/04/19 03:59:18;;;;;;;12.35;5.40;;;6.20;99.90;;;;;;5090086;28;20043;-77
2022/04/19 04:01:45;;;;;;;10.90;5.72;;;6.20;99.90;;;;;;5091275;28;20107;-77
2022/04/19 04:04:11;;;;;;;9.82;5.40;;;6.20;99.90;;;;;;5074942;28;20083;-76
2022/04/19 04:06:37;;;;;;;12.18;4.68;;;6.10;99.90;;;;;;5060469;28;20036;-77
2022/04/19 04:09:06;;;;;;;9.63;5.47;;;6.20;99.90;;;;;;5094893;28;20069;-77
2022/04/19 04:11:34;;;;;;;10.57;5.32;;;6.10;99.90;;;;;;5089649;28;20130;-77
2022/04/19 04:14:00;;;;;;;10.32;5.22;;;6.10;99.90;;;;;;5110105;28;20376;-76
2022/04/19 04:16:26;;;;;;;9.07;5.15;;;6.10;99.90;;;;;;5089932;28;20040;-78
2022/04/19 04:18:54;;;;;;;10.48;5.15;;;6.10;99.90;;;;;;5074859;28;20063;-77
2022/04/19 04:21:19;;;;;;;9.07;4.85;;;6.10;99.90;;;;;;5074231;28;20161;-77
2022/04/19 04:23:45;;;;;;;10.90;4.85;;;6.10;99.90;;;;;;5090316;28;20115;-77
2022/04/19 04:26:11;;;;;;;11.43;5.63;;;6.10;99.90;;;;;;5074773;28;20044;-77
2022/04/19 04:28:36;;;;;;;13.00;5.13;;;6.10;99.90;;;;;;5089588;28;20165;-77
2022/04/19 04:31:02;;;;;;;9.15;5.15;;;6.00;99.90;;;;;;5109825;28;20104;-76
2022/04/19 04:33:28;;;;;;;12.43;6.13;;;6.00;99.90;;;;;;5089353;28;20043;-75
2022/04/19 04:35:53;;;;;;;10.10;5.57;;;6.00;99.90;;;;;;5090672;28;20043;-76
2022/04/19 04:38:19;;;;;;;10.68;5.28;;;6.00;99.90;;;;;;5108684;28;20122;-76
2022/04/19 04:40:45;;;;;;;8.70;5.30;;;5.90;99.90;;;;;;5072876;28;20044;-76
2022/04/19 04:43:10;;;;;;;9.88;5.30;;;6.00;99.90;;;;;;5091328;28;20172;-77
2022/04/19 04:45:36;;;;;;;9.85;4.78;;;6.00;99.90;;;;;;5072078;28;20045;-76
2022/04/19 04:50:46;;;;;;;11.10;5.28;;;6.00;99.90;;;;;;5089846;28;20382;-76
2022/04/19 04:53:12;;;;;;;9.80;5.70;;;6.00;99.90;;;;;;5072964;28;20043;-77
2022/04/19 04:55:37;;;;;;;12.23;6.10;;;6.00;99.90;;;;;;5090287;28;20048;-77
2022/04/19 04:58:03;;;;;;;12.43;5.70;;;6.00;99.90;;;;;;5055769;28;20384;-78
2022/04/19 05:00:29;;;;;;;9.77;5.78;;;6.10;99.90;;;;;;5092140;28;20467;-77
2022/04/19 05:02:55;;;;;;;14.93;7.65;;;6.10;99.90;;;;;;5090549;28;20035;-77
2022/04/19 05:05:22;;;;;;;16.45;6.38;;;6.10;99.90;;;;;;5076144;28;20075;-77
2022/04/19 05:07:48;;;;;;;13.30;7.05;;;6.10;99.90;;;;;;5091441;28;20048;-76
2022/04/19 05:10:14;;;;;;;14.25;6.97;;;6.20;99.90;;;;;;5110813;28;20028;-76
2022/04/19 05:12:40;;;;;;;11.32;6.22;;;6.20;99.90;;;;;;5075072;28;20073;-77
2022/04/19 05:15:06;;;;;;;13.63;5.57;;;6.20;99.90;;;;;;5074286;28;20043;-77
2022/04/19 05:17:33;;;;;;;11.32;5.20;;;6.30;99.90;;;;;;5092262;28;20056;-76
2022/04/19 05:19:59;;;;;;;10.73;5.25;;;6.40;99.90;;;;;;5089721;28;20052;-76
2022/04/19 05:22:24;;;;;;;14.18;5.75;;;6.50;99.90;;;;;;5091487;28;20057;-75
2022/04/19 05:24:50;;;;;;;12.65;5.75;;;6.60;99.90;;;;;;5089786;28;20043;-76
2022/04/19 05:27:16;;;;;;;10.32;5.70;;;6.60;99.90;;;;;;5089741;28;20047;-76
2022/04/19 05:29:41;;;;;;;11.73;6.00;;;7.20;99.90;;;;;;5072632;28;20541;-77
2022/04/19 05:32:08;;;;;;;13.45;6.50;;;6.80;99.90;;;;;;5088650;28;20044;-77
2022/04/19 05:34:33;;;;;;;13.98;6.57;;;7.00;99.90;;;;;;5090921;28;20122;-79
2022/04/19 05:36:59;;;;;;;10.63;5.18;;;7.10;99.90;;;;;;5071197;28;20506;-77
2022/04/19 05:39:25;;;;;;;18.58;7.03;;;7.10;99.90;;;;;;5073289;28;20168;-76
2022/04/19 05:41:50;;;;;;;10.13;5.97;;;7.20;99.90;;;;;;5107086;28;20139;-77
2022/04/19 05:44:16;;;;;;;10.65;5.45;;;7.40;99.90;;;;;;5110226;28;20268;-76
2022/04/19 05:46:42;;;;;;;11.90;5.38;;;7.50;99.90;;;;;;5090907;28;20044;-77
2022/04/19 05:49:07;;;;;;;12.13;5.97;;;7.50;99.90;;;;;;5090636;28;20044;-78
2022/04/19 05:51:34;;;;;;;10.07;5.95;;;7.70;99.90;;;;;;5090354;28;20372;-77
2022/04/19 05:54:00;;;;;;;12.20;5.43;;;7.70;99.90;;;;;;5071420;28;20079;-77
2022/04/19 05:56:26;;;;;;;9.70;5.28;;;7.80;99.90;;;;;;5089719;28;20083;-77
2022/04/19 05:58:52;;;;;;;11.57;5.57;;;7.90;99.90;;;;;;5088255;28;20474;-76
2022/04/19 06:01:18;;;;;;;10.70;5.05;;;8.00;99.90;;;;;;5089516;28;20051;-76
2022/04/19 06:06:48;;;;;;;15.82;5.18;;;8.20;99.90;;;;;;5063166;28;20048;-76
2022/04/19 06:09:16;;;;;;;12.88;5.88;;;8.30;99.90;;;;;;5032009;28;20470;-76
2022/04/19 06:11:42;;;;;;;10.07;5.53;;;8.40;99.90;;;;;;5066570;28;20095;-76
2022/04/19 06:14:07;;;;;;;10.63;5.45;;;8.50;99.90;;;;;;5089524;28;20086;-77
2022/04/19 06:16:33;;;;;;;10.15;5.93;;;8.60;99.90;;;;;;5107599;28;20097;-77
2022/04/19 06:18:58;;;;;;;13.95;5.95;;;8.70;99.90;;;;;;5089039;28;20462;-76
2022/04/19 06:21:24;;;;;;;10.05;5.40;;;8.70;99.90;;;;;;5108523;28;20494;-77
2022/04/19 06:23:50;;;;;;;9.98;5.68;;;8.80;99.90;;;;;;5054625;28;20036;-77
2022/04/19 06:26:16;;;;;;;9.57;5.80;;;8.90;99.90;;;;;;5072906;28;20086;-76
2022/04/19 06:28:42;;;;;;;10.05;5.00;;;9.10;99.90;;;;;;5088697;28;20098;-76
2022/04/19 06:31:07;;;;;;;11.80;6.40;;;9.20;99.90;;;;;;5093830;28;20055;-77
2022/04/19 06:33:33;;;;;;;11.80;5.55;;;9.30;99.90;;;;;;5058860;28;20047;-78
2022/04/19 06:36:00;;;;;;;9.70;4.80;;;9.40;99.90;;;;;;5059245;28;20097;-78
2022/04/19 06:38:26;;;;;;;8.73;5.63;;;9.70;99.90;;;;;;5093000;28;20055;-78
2022/04/19 06:40:51;;;;;;;13.85;4.70;;;9.70;99.90;;;;;;5091500;28;20055;-78
2022/04/19 06:43:17;;;;;;;9.45;5.43;;;9.80;99.90;;;;;;5093268;28;20047;-78
2022/04/19 06:45:43;;;;;;;9.07;4.93;;;9.90;99.90;;;;;;5057772;28;20521;-78
2022/04/19 06:48:09;;;;;;;12.48;5.22;;;10.10;99.90;;;;;;5076339;28;20047;-76
2022/04/19 06:50:35;;;;;;;9.32;4.75;;;10.20;99.90;;;;;;5110476;28;20040;-77
2022/04/19 06:53:00;;;;;;;9.50;4.88;;;10.30;99.90;;;;;;5075551;28;20534;-77
2022/04/19 06:55:27;;;;;;;7.03;4.03;;;10.50;99.90;;;;;;5093039;28;20081;-77
2022/04/19 06:57:53;;;;;;;9.23;4.53;;;10.60;99.90;;;;;;5074311;28;20482;-77
2022/04/19 07:00:19;;;;;;;10.05;4.43;;;10.70;99.90;;;;;;5076462;28;20172;-77
2022/04/19 07:02:45;;;;;;;6.78;4.05;;;10.90;99.90;;;;;;5091164;28;20044;-77
2022/04/19 07:05:11;;;;;;;7.25;3.97;;;11.00;99.90;;;;;;5092881;28;20055;-77
2022/04/19 07:07:42;;;;;;;7.38;4.40;;;11.10;99.90;;;;;;5091600;28;20072;-78
2022/04/19 07:10:12;;;;;;;6.10;3.60;;;11.30;99.90;;;;;;5074982;28;20047;-78
2022/04/19 07:12:39;;;;;;;10.80;4.00;;;11.30;99.90;;;;;;5093035;28;20482;-78
2022/04/19 07:15:05;;;;;;;8.98;4.30;;;12.00;99.90;;;;;;5090512;28;20054;-78
2022/04/19 07:17:31;;;;;;;9.00;3.80;;;11.50;99.90;;;;;;5093051;28;20070;-78
2022/04/19 07:28:14;;;;;;;10.35;4.45;;;12.00;99.90;;;;;;5091987;28;20584;-76
2022/04/19 07:30:40;;;;;;;11.63;4.28;;;12.20;99.90;;;;;;5092269;28;20051;-77
2022/04/19 07:33:06;;;;;;;6.53;3.50;;;12.30;99.90;;;;;;5090671;28;20051;-77
2022/04/19 07:35:32;;;;;;;8.38;4.00;;;12.30;99.90;;;;;;5075113;28;20402;-77
2022/04/19 07:37:58;;;;;;;5.38;3.42;;;12.40;99.90;;;;;;5092540;28;20097;-76
2022/04/19 07:40:23;;;;;;;5.68;3.22;;;12.60;99.90;;;;;;5086722;28;20052;-77
2022/04/19 07:42:49;;;;;;;7.40;3.85;;;12.70;99.90;;;;;;5089173;28;20048;-78
2022/04/19 07:45:15;;;;;;;3.90;2.47;;;12.60;99.90;;;;;;5086730;28;20480;-78
2022/04/19 07:47:41;;;;;;;6.82;3.13;;;12.70;99.90;;;;;;5092397;28;20047;-77
2022/04/19 07:50:07;;;;;;;7.63;3.08;;;12.80;99.90;;;;;;5073174;28;20051;-77
2022/04/19 07:52:33;;;;;;;5.13;2.92;;;12.90;99.90;;;;;;5090754;28;20108;-77
2022/04/19 07:54:59;;;;;;;9.38;3.78;;;13.00;99.50;;;;;;5041015;28;20483;-77
2022/04/19 07:57:25;;;;;;;7.22;3.10;;;13.00;98.90;;;;;;5090953;28;20123;-78
2022/04/19 07:59:54;;;;;;;4.30;2.45;;;13.10;98.60;;;;;;5091502;28;20079;-77
2022/04/19 08:02:20;;;;;;;7.95;3.03;;;13.20;97.30;;;;;;5088414;28;20051;-77
2022/04/19 08:04:46;;;;;;;6.40;3.25;;;13.30;97.70;;;;;;5092724;28;20495;-77
2022/04/19 08:07:12;;;;;;;7.05;2.22;;;13.40;97.40;;;;;;5091086;28;20563;-78
2022/04/19 08:09:39;;;;;;;3.85;2.50;;;13.60;96.60;;;;;;5090930;28;20079;-77
2022/04/19 08:12:05;;;;;;;4.03;2.35;;;13.70;95.80;;;;;;5073661;28;20123;-78
2022/04/19 08:14:32;;;;;;;3.95;2.60;;;13.80;94.50;;;;;;5072888;28;20097;-77
2022/04/19 08:16:58;;;;;;;3.70;2.58;;;13.90;93.10;;;;;;5091393;28;20071;-78
2022/04/19 08:19:24;;;;;;;3.78;2.20;;;14.20;91.90;;;;;;5089896;28;20480;-78
2022/04/19 08:21:51;;;;;;;3.80;1.92;;;14.50;90.10;;;;;;5073726;28;20049;-77
2022/04/19 08:24:16;;;;;;;3.70;1.95;;;14.80;84.50;;;;;;5072797;28;20058;-78
2022/04/19 08:26:42;;;;;;;4.05;1.55;;;15.20;80.40;;;;;;5091528;28;20562;-77
2022/04/19 08:29:08;;;;;;;3.63;1.80;;;15.50;77.00;;;;;;5091479;28;20069;-78
2022/04/19 08:31:34;;;;;;;3.95;1.77;;;15.60;73.30;;;;;;5072056;28;20104;-78
2022/04/19 08:34:01;;;;;;;1.88;1.10;;;15.60;70.20;;;;;;5091116;28;20048;-78
2022/04/19 08:36:26;;;;;;;3.35;1.48;;;15.70;67.50;;;;;;5089950;28;20404;-78
2022/04/19 08:38:52;;;;;;;2.30;1.10;;;15.70;67.30;;;;;;5098007;28;20051;-78
2022/04/19 08:41:18;;;;;;;2.40;1.30;;;15.90;65.20;;;;;;5110550;28;20091;-79
2022/04/19 08:43:47;;;;;;;2.63;1.00;;;16.00;63.90;;;;;;5093144;28;20163;-78
2022/04/19 08:46:14;;;;;;;4.20;0.98;;;16.10;62.10;;;;;;5093301;28;20055;-78
2022/04/19 08:48:44;;;;;;;8.40;0.70;;;16.20;60.90;;;;;;5075492;28;20059;-78
2022/04/19 08:51:12;;;;;;;1.17;0.68;;;16.10;59.20;;;;;;5093261;28;20048;-78
2022/04/19 08:59:07;;;;;;;0.93;0.70;;;16.40;59.50;;;;;;5111607;28;20047;-78
2022/04/19 09:01:38;;;;;;;2.88;0.80;;;16.50;58.70;;;;;;5091778;28;20039;-78
2022/04/19 09:04:04;;;;;;;3.25;0.90;;;16.50;57.60;;;;;;5077406;28;20040;-77
2022/04/19 09:06:54;;;;;;;1.90;0.85;;;16.50;57.30;;;;;;5094767;28;20362;-78
2022/04/19 09:09:27;;;;;;;2.30;0.80;;;16.40;55.30;;;;;;5111645;28;20051;-78
2022/04/19 09:12:04;;;;;;;2.00;1.13;;;16.30;55.80;;;;;;5111019;28;20036;-78
2022/04/19 09:14:30;;;;;;;3.80;1.15;;;16.10;56.90;;;;;;5109824;28;20043;-78
2022/04/19 09:17:08;;;;;;;1.55;0.80;;;16.00;57.70;;;;;;5112000;28;20043;-77
2022/04/19 09:19:34;;;;;;;2.03;1.00;;;16.00;57.10;;;;;;5091640;28;20052;-78
2022/04/19 09:22:00;;;;;;;3.70;1.50;;;16.10;58.70;;;;;;5090523;28;20051;-77
2022/04/19 09:24:28;;;;;;;1.98;1.27;;;16.20;58.20;;;;;;5039821;28;20044;-79
2022/04/19 09:26:54;;;;;;;2.65;1.20;;;16.20;57.90;;;;;;5072581;28;20126;-77
2022/04/19 09:29:25;;;;;;;3.33;1.50;;;16.30;58.00;;;;;;5108487;28;20035;-77
2022/04/19 09:32:11;;;;;;;2.15;1.40;;;16.30;58.00;;;;;;5071594;28;20056;-77
2022/04/19 09:34:37;;;;;;;3.65;1.35;;;16.40;58.50;;;;;;5073253;28;20056;-77
2022/04/19 09:37:13;;;;;;;2.67;1.45;;;16.60;58.70;;;;;;5089135;28;20051;-77
2022/04/19 09:39:40;;;;;;;2.10;1.38;;;16.80;56.00;;;;;;5085655;28;20064;-78
2022/04/19 09:42:07;;;;;;;4.93;1.48;;;17.00;57.40;;;;;;5086350;28;20070;-79
2022/04/19 09:44:39;;;;;;;4.00;1.73;;;17.10;57.00;;;;;;5084697;28;20495;-78
2022/04/19 09:47:07;;;;;;;4.72;1.58;;;17.20;56.20;;;;;;5070018;28;20079;-78
2022/04/19 09:49:47;;;;;;;3.45;1.42;;;17.40;56.10;;;;;;5085213;28;20036;-78
2022/04/19 09:52:15;;;;;;;2.75;1.45;;;17.40;54.40;;;;;;5069527;28;20055;-78
2022/04/19 09:54:44;;;;;;;2.40;1.55;;;17.40;55.70;;;;;;5069518;28;20040;-77
2022/04/19 09:57:11;;;;;;;1.90;1.40;;;17.40;55.40;;;;;;5085287;28;20094;-77
2022/04/19 09:59:44;;;;;;;2.60;1.30;;;17.40;55.90;;;;;;5086991;28;20119;-77
2022/04/19 10:10:26;;;;;;;4.00;1.70;;;17.40;55.50;;;;;;5089761;28;20059;-78
2022/04/19 10:12:53;;;;;;;2.80;1.13;;;17.40;55.20;;;;;;5090817;28;20067;-76
2022/04/19 10:15:20;;;;;;;14.02;2.40;;;17.50;55.60;;;;;;5088678;28;20170;-76
2022/04/19 10:17:47;;;;;;;3.25;1.45;;;17.60;55.00;;;;;;5089922;28;20044;-76
2022/04/19 10:20:14;;;;;;;3.78;1.52;;;17.60;54.80;;;;;;5090185;28;20040;-76
2022/04/19 10:22:47;;;;;;;2.60;1.45;;;17.60;54.90;;;;;;5088992;28;20137;-76
2022/04/19 10:25:13;;;;;;;2.03;1.27;;;17.60;55.20;;;;;;5073557;28;20051;-76
2022/04/19 10:27:39;;;;;;;2.78;1.35;;;17.80;55.00;;;;;;5089458;28;20047;-75
2022/04/19 10:30:06;;;;;;;2.25;1.20;;;17.80;54.70;;;;;;5089977;28;20046;-78
2022/04/19 10:32:33;;;;;;;2.00;1.10;;;17.80;53.90;;;;;;5071823;28;20052;-78
2022/04/19 10:35:01;;;;;;;3.80;1.33;;;17.80;54.00;;;;;;5089407;28;20051;-77
2022/04/19 10:37:27;;;;;;;2.17;1.10;;;17.80;53.80;;;;;;5073193;28;20043;-78
2022/04/19 10:40:01;;;;;;;2.13;1.30;;;17.80;53.90;;;;;;5071422;28;20605;-78
2022/04/19 10:42:35;;;;;;;3.08;1.67;;;17.90;53.60;;;;;;5090181;28;20535;-77
2022/04/19 10:45:13;;;;;;;2.10;1.40;;;18.00;53.10;;;;;;5088087;28;20490;-77
2022/04/19 10:47:54;;;;;;;2.35;1.42;;;18.00;53.30;;;;;;5072842;28;20071;-77
2022/04/19 10:50:33;;;;;;;2.67;1.33;;;18.00;51.80;;;;;;5089974;28;20090;-77
2022/04/19 10:53:03;;;;;;;3.35;1.52;;;18.00;51.90;;;;;;5088079;28;20652;-77
2022/04/19 10:55:37;;;;;;;1.63;1.08;;;18.00;52.40;;;;;;5090124;28;20556;-77
2022/04/19 10:58:12;;;;;;;4.72;1.40;;;18.00;52.00;;;;;;5071706;28;20402;-77
2022/04/19 11:00:42;;;;;;;3.35;1.40;;;18.00;52.50;;;;;;5089321;28;20074;-78
2022/04/19 11:03:14;;;;;;;3.55;1.58;;;18.20;52.50;;;;;;5089393;28;20047;-78
2022/04/19 11:05:51;;;;;;;2.95;1.73;;;18.30;52.10;;;;;;5089779;28;20439;-78
2022/04/19 11:08:26;;;;;;;3.38;1.58;;;18.30;51.20;;;;;;5089796;28;20616;-77
2022/04/19 11:10:52;;;;;;;1.98;1.45;;;18.30;50.90;;;;;;5088111;28;20052;-78
2022/04/19 11:13:19;;;;;;;3.20;1.35;;;17.30;51.40;;;;;;5089227;28;20047;-78
2022/04/19 11:16:06;;;;;;;3.92;1.58;;;18.50;52.00;;;;;;5070731;28;20208;-77
2022/04/19 11:18:35;;;;;;;3.22;1.35;;;18.60;50.40;;;;;;5070581;28;20055;-77
2022/04/19 11:21:06;;;;;;;2.72;1.35;;;18.70;51.30;;;;;;5072448;28;20069;-77
2022/04/19 11:23:46;;;;;;;2.03;1.33;;;18.70;51.10;;;;;;5054175;28;20173;-77
2022/04/19 11:26:30;;;;;;;1.65;0.93;;;18.80;49.90;;;;;;5088833;28;20047;-78
2022/04/19 11:29:11;;;;;;;2.55;1.40;;;18.90;50.70;;;;;;5088619;28;20036;-78
2022/04/19 11:31:56;;;;;;;1.73;1.48;;;19.10;48.90;;;;;;5087712;28;20047;-78
2022/04/19 11:34:23;;;;;;;1.40;1.00;;;19.20;49.80;;;;;;5088740;28;20052;-78
2022/04/19 11:36:49;;;;;;;5.35;1.90;;;19.20;50.70;;;;;;5088390;28;20036;-77
2022/04/19 11:47:51;;;;;;;3.50;1.95;;;19.50;50.60;;;;;;5088117;28;20059;-77
2022/04/19 11:50:31;;;;;;;2.53;2.03;;;19.50;50.40;;;;;;5088306;28;20574;-78
2022/04/19 11:53:01;;;;;;;3.63;2.13;;;19.50;49.60;;;;;;5070187;28;20518;-77
2022/04/19 11:55:27;;;;;;;3.30;1.42;;;19.60;50.50;;;;;;5089100;28;20078;-78
2022/04/19 11:58:09;;;;;;;2.70;1.73;;;19.70;50.50;;;;;;5086962;28;20048;-78
2022/04/19 12:00:36;;;;;;;6.68;1.90;;;19.90;49.40;;;;;;5070760;28;20040;-77
2022/04/19 12:03:05;;;;;;;7.75;1.70;;;19.90;49.50;;;;;;5088209;28;20036;-77
2022/04/19 12:05:31;;;;;;;7.00;1.95;;;19.90;49.40;;;;;;5087048;28;20048;-77
2022/04/19 12:07:57;;;;;;;4.25;1.33;;;19.80;48.80;;;;;;5088451;28;20406;-78
2022/04/19 12:10:23;;;;;;;4.18;1.80;;;19.80;48.70;;;;;;5086346;28;20048;-78
2022/04/19 12:12:50;;;;;;;4.55;1.40;;;19.80;48.60;;;;;;5088374;28;20050;-77
2022/04/19 12:15:41;;;;;;;3.58;1.25;;;19.90;48.90;;;;;;5087543;28;20157;-77
2022/04/19 12:18:10;;;;;;;2.47;1.23;;;20.00;48.30;;;;;;5086608;28;20048;-77
2022/04/19 12:20:43;;;;;;;3.72;1.33;;;20.10;49.00;;;;;;5088599;28;20076;-77
2022/04/19 12:23:19;;;;;;;2.42;1.38;;;20.20;48.50;;;;;;5069329;28;20130;-78
2022/04/19 12:26:06;;;;;;;4.22;1.05;;;20.40;48.10;;;;;;5071299;28;20048;-78
2022/04/19 12:28:42;;;;;;;2.90;1.52;;;20.40;47.50;;;;;;5071030;28;20453;-78
2022/04/19 12:31:08;;;;;;;2.47;1.52;;;20.50;47.40;;;;;;5086850;28;20101;-77
2022/04/19 12:33:37;;;;;;;2.10;1.00;;;20.50;47.70;;;;;;5089730;28;20444;-78
2022/04/19 12:36:11;;;;;;;3.90;1.58;;;20.30;47.40;;;;;;5087705;28;20110;-77
2022/04/19 12:38:36;;;;;;;2.13;1.15;;;20.40;47.80;;;;;;5087969;28;20044;-78
2022/04/19 12:41:15;;;;;;;4.38;1.58;;;20.50;47.50;;;;;;5087337;28;20204;-78
2022/04/19 12:43:46;;;;;;;1.90;1.33;;;20.50;46.80;;;;;;5088094;28;20218;-76
2022/04/19 12:46:15;;;;;;;3.78;1.30;;;20.60;46.50;;;;;;5071422;28;20051;-76
2022/04/19 12:48:51;;;;;;;2.72;1.63;;;20.60;46.50;;;;;;5068770;28;20048;-77
2022/04/19 12:51:22;;;;;;;9.65;1.50;;;20.50;46.60;;;;;;5055576;28;20094;-77
2022/04/19 12:54:07;;;;;;;1.85;1.20;;;20.40;46.50;;;;;;5086957;28;20066;-78
2022/04/19 12:56:33;;;;;;;2.03;1.10;;;20.50;46.10;;;;;;5085726;28;20052;-78
2022/04/19 12:59:00;;;;;;;1.95;1.30;;;20.50;46.90;;;;;;5087682;28;20462;-78
2022/04/19 13:01:26;;;;;;;2.30;1.40;;;20.50;47.00;;;;;;5068287;28;20058;-77
2022/04/19 13:03:52;;;;;;;3.47;1.25;;;20.40;46.40;;;;;;5089032;28;20358;-77
2022/04/19 13:14:31;;;;;;;2.20;1.50;;;20.30;46.80;;;;;;5071032;28;20044;-77
2022/04/19 13:16:57;;;;;;;2.05;1.00;;;20.40;47.00;;;;;;5069819;28;20044;-76
2022/04/19 13:19:23;;;;;;;1.98;0.95;;;20.50;46.50;;;;;;5069013;28;20040;-77
2022/04/19 13:21:49;;;;;;;2.60;1.70;;;20.50;46.20;;;;;;5086542;28;20066;-76
2022/04/19 13:24:14;;;;;;;2.08;1.25;;;20.60;46.40;;;;;;5072521;28;20044;-77
2022/04/19 13:26:40;;;;;;;2.85;1.58;;;20.60;46.10;;;;;;5089201;28;20036;-77
2022/04/19 13:29:06;;;;;;;1.52;1.10;;;20.60;45.80;;;;;;5089851;28;20500;-77
2022/04/19 13:31:33;;;;;;;1.77;1.13;;;20.60;45.60;;;;;;5088153;28;20533;-78
2022/04/19 13:33:59;;;;;;;5.40;1.42;;;20.60;45.40;;;;;;5089556;28;20063;-78
2022/04/19 13:36:24;;;;;;;2.22;1.40;;;20.60;45.40;;;;;;5071653;28;20039;-77
2022/04/19 13:38:50;;;;;;;3.08;1.40;;;20.80;45.60;;;;;;5087491;28;20058;-77
2022/04/19 13:41:16;;;;;;;2.78;1.77;;;20.80;45.40;;;;;;5088075;28;20075;-76
2022/04/19 13:43:43;;;;;;;3.20;1.70;;;20.90;45.20;;;;;;5088126;28;20072;-77
2022/04/19 13:46:09;;;;;;;2.65;1.73;;;20.90;45.30;;;;;;5090640;28;20551;-76
2022/04/19 13:48:35;;;;;;;3.63;1.50;;;21.00;45.40;;;;;;5087704;28;20075;-76